Terminal Aerodrome Forecast
Issued by NWS

Home | Current Version | Previous Version | Text Only | Print | Product List | Glossary On
Versions: 1 2 3 4 5 6 7 8 9 10 11 12 13 14 15 16 17 18
144
FTUS46 KEKA 142114 AAA
TAFUKI
TAF AMD
KUKI 142114Z 1421/1518 32010KT P6SM FEW120 SCT250
      TEMPO 1421/1424 32012G21KT
     FM150200 35005KT P6SM SCT250
     FM151200 VRB03KT 4SM BR FEW250=

USA.gov is the U.S. government's official web portal to all federal, state and local government web resources and services.